sensor_id;sensor_type;location;lat;lon;timestamp;pressure;altitude;pressure_sealevel;temperature;humidity
67842;BME280;54642;59.126;37.876;2022-09-21T00:00:24;99880.13;;;11.86;77.48
67842;BME280;54642;59.126;37.876;2022-09-21T00:02:50;99881.03;;;11.83;77.57
67842;BME280;54642;59.126;37.876;2022-09-21T00:05:17;99882.75;;;11.85;77.48
67842;BME280;54642;59.126;37.876;2022-09-21T00:07:43;99855.25;;;11.70;77.40
67842;BME280;54642;59.126;37.876;2022-09-21T00:10:09;99866.47;;;11.73;77.14
67842;BME280;54642;59.126;37.876;2022-09-21T00:12:35;99892.31;;;11.82;77.60
67842;BME280;54642;59.126;37.876;2022-09-21T00:15:07;99885.38;;;11.81;77.61
67842;BME280;54642;59.126;37.876;2022-09-21T00:17:35;99884.56;;;11.76;77.45
67842;BME280;54642;59.126;37.876;2022-09-21T00:20:03;99875.97;;;11.71;77.42
67842;BME280;54642;59.126;37.876;2022-09-21T00:22:31;99895.84;;;11.75;77.37
67842;BME280;54642;59.126;37.876;2022-09-21T00:24:57;99892.34;;;11.78;77.48
67842;BME280;54642;59.126;37.876;2022-09-21T00:27:22;99881.22;;;11.68;77.52
67842;BME280;54642;59.126;37.876;2022-09-21T00:29:55;99889.84;;;11.70;77.45
67842;BME280;54642;59.126;37.876;2022-09-21T00:32:21;99903.69;;;11.71;77.38
67842;BME280;54642;59.126;37.876;2022-09-21T00:34:50;99907.13;;;11.71;77.36
67842;BME280;54642;59.126;37.876;2022-09-21T00:37:17;99876.22;;;11.51;77.33
67842;BME280;54642;59.126;37.876;2022-09-21T00:39:43;99908.97;;;11.63;77.45
67842;BME280;54642;59.126;37.876;2022-09-21T00:42:11;99890.13;;;11.49;77.33
67842;BME280;54642;59.126;37.876;2022-09-21T00:44:39;99934.88;;;11.68;77.34
67842;BME280;54642;59.126;37.876;2022-09-21T00:47:34;99933.88;;;11.78;77.27
67842;BME280;54642;59.126;37.876;2022-09-21T00:50:05;99940.84;;;11.74;77.08
67842;BME280;54642;59.126;37.876;2022-09-21T00:52:39;99946.94;;;11.73;77.27
67842;BME280;54642;59.126;37.876;2022-09-21T00:55:18;99959.94;;;11.69;77.32
67842;BME280;54642;59.126;37.876;2022-09-21T00:57:49;99959.09;;;11.70;77.34
67842;BME280;54642;59.126;37.876;2022-09-21T01:00:17;99961.59;;;11.77;77.56
67842;BME280;54642;59.126;37.876;2022-09-21T01:02:43;99956.22;;;11.94;76.95
67842;BME280;54642;59.126;37.876;2022-09-21T01:05:10;99976.88;;;12.04;76.85
67842;BME280;54642;59.126;37.876;2022-09-21T01:07:39;99979.25;;;12.24;76.58
67842;BME280;54642;59.126;37.876;2022-09-21T01:10:10;99979.38;;;12.14;76.24
67842;BME280;54642;59.126;37.876;2022-09-21T01:20:38;100007.47;;;11.77;76.96
67842;BME280;54642;59.126;37.876;2022-09-21T01:31:25;99988.72;;;11.50;77.57
67842;BME280;54642;59.126;37.876;2022-09-21T01:33:57;100000.75;;;11.59;77.65
67842;BME280;54642;59.126;37.876;2022-09-21T01:36:29;99996.44;;;11.52;77.63
67842;BME280;54642;59.126;37.876;2022-09-21T01:39:02;100004.25;;;11.52;77.54
67842;BME280;54642;59.126;37.876;2022-09-21T01:41:31;99995.69;;;11.42;77.83
67842;BME280;54642;59.126;37.876;2022-09-21T01:44:03;99989.75;;;11.32;77.86
67842;BME280;54642;59.126;37.876;2022-09-21T01:46:33;100014.75;;;11.39;78.10
67842;BME280;54642;59.126;37.876;2022-09-21T01:49:12;100012.13;;;11.42;78.00
67842;BME280;54642;59.126;37.876;2022-09-21T01:51:43;100025.06;;;11.49;78.31
67842;BME280;54642;59.126;37.876;2022-09-21T01:54:15;100013.03;;;11.38;78.00
67842;BME280;54642;59.126;37.876;2022-09-21T01:56:47;100025.78;;;11.60;78.32
67842;BME280;54642;59.126;37.876;2022-09-21T01:59:31;100028.72;;;12.14;78.24
67842;BME280;54642;59.126;37.876;2022-09-21T02:02:05;100032.31;;;12.69;76.94
67842;BME280;54642;59.126;37.876;2022-09-21T02:04:34;100027.78;;;12.85;76.03
67842;BME280;54642;59.126;37.876;2022-09-21T02:07:01;100028.16;;;13.16;75.16
67842;BME280;54642;59.126;37.876;2022-09-21T02:09:27;100038.34;;;13.30;74.68
67842;BME280;54642;59.126;37.876;2022-09-21T02:11:53;100027.94;;;13.32;74.14
67842;BME280;54642;59.126;37.876;2022-09-21T02:14:20;99992.03;;;12.96;74.26
67842;BME280;54642;59.126;37.876;2022-09-21T02:17:10;100049.34;;;12.92;74.14
67842;BME280;54642;59.126;37.876;2022-09-21T02:19:48;100029.03;;;12.58;74.97
67842;BME280;54642;59.126;37.876;2022-09-21T02:22:38;100060.25;;;12.55;74.92
67842;BME280;54642;59.126;37.876;2022-09-21T02:25:20;100050.22;;;12.26;75.30
67842;BME280;54642;59.126;37.876;2022-09-21T02:27:55;100060.78;;;12.10;76.06
67842;BME280;54642;59.126;37.876;2022-09-21T02:30:24;100056.66;;;11.89;76.17
67842;BME280;54642;59.126;37.876;2022-09-21T02:32:58;100072.28;;;11.86;76.36
67842;BME280;54642;59.126;37.876;2022-09-21T02:36:09;100070.66;;;11.74;76.34
67842;BME280;54642;59.126;37.876;2022-09-21T02:38:48;100062.97;;;11.62;76.64
67842;BME280;54642;59.126;37.876;2022-09-21T02:41:30;100069.78;;;11.75;76.49
67842;BME280;54642;59.126;37.876;2022-09-21T02:44:08;100075.00;;;11.72;76.51
67842;BME280;54642;59.126;37.876;2022-09-21T02:46:41;100085.38;;;11.74;76.76
67842;BME280;54642;59.126;37.876;2022-09-21T02:49:13;100074.88;;;11.85;76.38
67842;BME280;54642;59.126;37.876;2022-09-21T02:51:48;100077.50;;;11.81;76.37
67842;BME280;54642;59.126;37.876;2022-09-21T02:54:23;100065.53;;;11.67;76.58
67842;BME280;54642;59.126;37.876;2022-09-21T02:56:51;100045.75;;;11.55;76.70
67842;BME280;54642;59.126;37.876;2022-09-21T02:59:18;100078.44;;;11.74;76.64
67842;BME280;54642;59.126;37.876;2022-09-21T03:01:46;100080.19;;;11.75;76.59
67842;BME280;54642;59.126;37.876;2022-09-21T03:04:12;100090.59;;;11.72;76.55
67842;BME280;54642;59.126;37.876;2022-09-21T03:06:37;100064.69;;;11.64;76.63
67842;BME280;54642;59.126;37.876;2022-09-21T03:09:03;100082.59;;;11.95;76.70
67842;BME280;54642;59.126;37.876;2022-09-21T03:11:29;100096.91;;;12.35;75.64
67842;BME280;54642;59.126;37.876;2022-09-21T03:13:55;100090.03;;;12.31;75.10
67842;BME280;54642;59.126;37.876;2022-09-21T03:16:21;100088.50;;;12.10;75.11
67842;BME280;54642;59.126;37.876;2022-09-21T03:18:49;100095.50;;;12.03;75.23
67842;BME280;54642;59.126;37.876;2022-09-21T03:21:15;100089.56;;;11.93;75.37
67842;BME280;54642;59.126;37.876;2022-09-21T03:23:41;100097.28;;;11.96;75.59
67842;BME280;54642;59.126;37.876;2022-09-21T03:26:07;100101.69;;;11.87;75.53
67842;BME280;54642;59.126;37.876;2022-09-21T03:28:33;100109.50;;;11.85;75.88
67842;BME280;54642;59.126;37.876;2022-09-21T03:30:59;100085.41;;;11.69;75.78
67842;BME280;54642;59.126;37.876;2022-09-21T03:33:25;100111.28;;;11.80;75.81
67842;BME280;54642;59.126;37.876;2022-09-21T03:35:51;100096.69;;;11.70;75.83
67842;BME280;54642;59.126;37.876;2022-09-21T03:38:18;100093.19;;;11.68;75.93
67842;BME280;54642;59.126;37.876;2022-09-21T03:40:47;100092.22;;;11.82;75.97
67842;BME280;54642;59.126;37.876;2022-09-21T03:43:14;100109.31;;;12.05;75.54
67842;BME280;54642;59.126;37.876;2022-09-21T03:45:40;100110.25;;;11.99;75.41
67842;BME280;54642;59.126;37.876;2022-09-21T03:48:08;100115.47;;;11.98;75.39
67842;BME280;54642;59.126;37.876;2022-09-21T03:50:34;100116.38;;;11.94;75.64
67842;BME280;54642;59.126;37.876;2022-09-21T03:53:00;100093.94;;;11.83;75.59
67842;BME280;54642;59.126;37.876;2022-09-21T03:55:26;100115.47;;;11.98;75.90
67842;BME280;54642;59.126;37.876;2022-09-21T03:57:52;100102.53;;;11.95;75.41
67842;BME280;54642;59.126;37.876;2022-09-21T04:00:19;100107.66;;;12.01;75.42
67842;BME280;54642;59.126;37.876;2022-09-21T04:02:44;100130.09;;;12.08;75.35
67842;BME280;54642;59.126;37.876;2022-09-21T04:05:12;100129.25;;;12.06;75.48
67842;BME280;54642;59.126;37.876;2022-09-21T04:07:40;100127.59;;;11.99;75.48
67842;BME280;54642;59.126;37.876;2022-09-21T04:10:09;100140.50;;;12.05;75.63
67842;BME280;54642;59.126;37.876;2022-09-21T04:12:39;100138.00;;;11.96;75.54
67842;BME280;54642;59.126;37.876;2022-09-21T04:15:14;100163.00;;;12.06;75.79
67842;BME280;54642;59.126;37.876;2022-09-21T04:17:41;100141.41;;;12.01;75.50
67842;BME280;54642;59.126;37.876;2022-09-21T04:20:07;100168.13;;;12.15;75.48
67842;BME280;54642;59.126;37.876;2022-09-21T04:22:34;100181.84;;;12.27;75.34
67842;BME280;54642;59.126;37.876;2022-09-21T04:25:04;100172.22;;;12.38;74.90
67842;BME280;54642;59.126;37.876;2022-09-21T04:27:31;100168.84;;;12.27;74.93
67842;BME280;54642;59.126;37.876;2022-09-21T04:29:58;100171.47;;;12.27;74.86
67842;BME280;54642;59.126;37.876;2022-09-21T04:32:23;100158.66;;;12.10;74.87
67842;BME280;54642;59.126;37.876;2022-09-21T04:34:49;100160.41;;;12.09;74.89
67842;BME280;54642;59.126;37.876;2022-09-21T04:37:16;100173.34;;;12.12;75.04
67842;BME280;54642;59.126;37.876;2022-09-21T04:39:42;100171.63;;;12.13;74.91
67842;BME280;54642;59.126;37.876;2022-09-21T04:42:08;100173.38;;;12.11;74.83
67842;BME280;54642;59.126;37.876;2022-09-21T04:44:34;100166.47;;;12.05;74.89
67842;BME280;54642;59.126;37.876;2022-09-21T04:47:00;100187.19;;;12.14;74.92
67842;BME280;54642;59.126;37.876;2022-09-21T04:49:26;100176.00;;;12.08;74.75
67842;BME280;54642;59.126;37.876;2022-09-21T04:51:52;100184.59;;;12.13;74.85
67842;BME280;54642;59.126;37.876;2022-09-21T04:54:18;100176.84;;;12.05;74.73
67842;BME280;54642;59.126;37.876;2022-09-21T04:56:44;100177.59;;;12.21;74.82
67842;BME280;54642;59.126;37.876;2022-09-21T04:59:10;100187.94;;;12.27;74.75
67842;BME280;54642;59.126;37.876;2022-09-21T05:01:35;100186.19;;;12.29;74.67
67842;BME280;54642;59.126;37.876;2022-09-21T05:04:01;100200.81;;;12.39;74.44
67842;BME280;54642;59.126;37.876;2022-09-21T05:06:28;100211.13;;;12.46;74.27
67842;BME280;54642;59.126;37.876;2022-09-21T05:08:55;100179.22;;;12.30;74.18
67842;BME280;54642;59.126;37.876;2022-09-21T05:11:39;100198.22;;;12.36;74.15
67842;BME280;54642;59.126;37.876;2022-09-21T05:14:06;100219.69;;;12.55;74.31
67842;BME280;54642;59.126;37.876;2022-09-21T05:16:32;100235.25;;;12.58;74.08
67842;BME280;54642;59.126;37.876;2022-09-21T05:18:58;100236.91;;;12.66;73.97
67842;BME280;54642;59.126;37.876;2022-09-21T05:21:23;100231.75;;;12.63;73.87
67842;BME280;54642;59.126;37.876;2022-09-21T05:23:50;100233.41;;;12.70;73.75
67842;BME280;54642;59.126;37.876;2022-09-21T05:26:16;100222.00;;;12.82;73.68
67842;BME280;54642;59.126;37.876;2022-09-21T05:28:42;100239.00;;;13.09;73.07
67842;BME280;54642;59.126;37.876;2022-09-21T05:34:23;100242.00;;;13.49;72.66
67842;BME280;54642;59.126;37.876;2022-09-21T05:39:32;100221.94;;;14.12;69.89
67842;BME280;54642;59.126;37.876;2022-09-21T05:41:58;100238.72;;;13.94;70.23
67842;BME280;54642;59.126;37.876;2022-09-21T05:44:24;100222.66;;;13.66;70.65
67842;BME280;54642;59.126;37.876;2022-09-21T05:49:44;100243.91;;;13.97;70.53
67842;BME280;54642;59.126;37.876;2022-09-21T05:58:10;100231.69;;;14.01;70.16
67842;BME280;54642;59.126;37.876;2022-09-21T06:01:40;100252.13;;;14.25;70.47
67842;BME280;54642;59.126;37.876;2022-09-21T06:03:37;100236.97;;;14.46;69.77
67842;BME280;54642;59.126;37.876;2022-09-21T06:06:07;100220.56;;;14.39;69.44
67842;BME280;54642;59.126;37.876;2022-09-21T06:08:33;100222.75;;;14.14;69.89
67842;BME280;54642;59.126;37.876;2022-09-21T06:10:58;100197.31;;;13.77;70.56
67842;BME280;54642;59.126;37.876;2022-09-21T06:13:24;100225.38;;;14.14;70.28
67842;BME280;54642;59.126;37.876;2022-09-21T06:15:51;100229.69;;;14.15;69.91
67842;BME280;54642;59.126;37.876;2022-09-21T06:18:18;100237.63;;;14.07;69.86
67842;BME280;54642;59.126;37.876;2022-09-21T06:20:44;100245.66;;;13.95;70.18
67842;BME280;54642;59.126;37.876;2022-09-21T06:23:11;100240.53;;;13.89;70.18
67842;BME280;54642;59.126;37.876;2022-09-21T06:25:38;100248.53;;;13.78;70.73
67842;BME280;54642;59.126;37.876;2022-09-21T06:28:05;100217.00;;;13.95;70.32
67842;BME280;54642;59.126;37.876;2022-09-21T06:30:32;100240.78;;;14.28;69.46
67842;BME280;54642;59.126;37.876;2022-09-21T06:33:02;100228.09;;;14.06;69.53
67842;BME280;54642;59.126;37.876;2022-09-21T06:35:29;100234.16;;;14.08;69.88
67842;BME280;54642;59.126;37.876;2022-09-21T06:38:03;100257.28;;;14.27;69.53
67842;BME280;54642;59.126;37.876;2022-09-21T06:40:31;100247.56;;;14.38;69.32
67842;BME280;54642;59.126;37.876;2022-09-21T06:42:58;100253.03;;;14.73;69.08
67842;BME280;54642;59.126;37.876;2022-09-21T06:45:24;100244.84;;;14.91;67.96
67842;BME280;54642;59.126;37.876;2022-09-21T06:47:51;100240.84;;;14.73;68.35
67842;BME280;54642;59.126;37.876;2022-09-21T06:50:16;100262.41;;;14.84;68.31
67842;BME280;54642;59.126;37.876;2022-09-21T06:52:42;100241.22;;;14.98;68.02
67842;BME280;54642;59.126;37.876;2022-09-21T06:55:08;100262.47;;;15.23;66.93
67842;BME280;54642;59.126;37.876;2022-09-21T06:57:35;100258.44;;;15.07;67.88
67842;BME280;54642;59.126;37.876;2022-09-21T07:00:05;100258.03;;;15.27;67.53
67842;BME280;54642;59.126;37.876;2022-09-21T07:02:31;100243.13;;;15.32;67.02
67842;BME280;54642;59.126;37.876;2022-09-21T07:04:57;100246.53;;;15.36;66.87
67842;BME280;54642;59.126;37.876;2022-09-21T07:07:24;100262.56;;;15.20;66.79
67842;BME280;54642;59.126;37.876;2022-09-21T07:09:50;100257.13;;;15.30;67.02
67842;BME280;54642;59.126;37.876;2022-09-21T07:12:17;100259.53;;;15.39;66.96
67842;BME280;54642;59.126;37.876;2022-09-21T07:14:43;100231.63;;;15.41;66.04
67842;BME280;54642;59.126;37.876;2022-09-21T07:17:10;100272.53;;;15.42;65.87
67842;BME280;54642;59.126;37.876;2022-09-21T07:19:36;100277.16;;;15.29;66.21
67842;BME280;54642;59.126;37.876;2022-09-21T07:22:02;100274.84;;;15.15;66.21
67842;BME280;54642;59.126;37.876;2022-09-21T07:24:28;100264.66;;;15.01;66.57
67842;BME280;54642;59.126;37.876;2022-09-21T07:26:53;100274.63;;;15.24;66.73
67842;BME280;54642;59.126;37.876;2022-09-21T07:29:19;100277.81;;;15.39;66.46
67842;BME280;54642;59.126;37.876;2022-09-21T07:31:45;100281.97;;;15.49;65.56
67842;BME280;54642;59.126;37.876;2022-09-21T07:34:11;100260.84;;;15.58;66.07
67842;BME280;54642;59.126;37.876;2022-09-21T07:36:36;100287.50;;;15.76;65.60
67842;BME280;54642;59.126;37.876;2022-09-21T07:39:02;100269.81;;;15.87;65.64
67842;BME280;54642;59.126;37.876;2022-09-21T07:41:28;100287.06;;;15.94;64.99
67842;BME280;54642;59.126;37.876;2022-09-21T07:43:54;100272.66;;;16.14;64.82
67842;BME280;54642;59.126;37.876;2022-09-21T07:46:20;100285.94;;;16.41;64.34
67842;BME280;54642;59.126;37.876;2022-09-21T07:48:46;100291.50;;;16.61;63.65
67842;BME280;54642;59.126;37.876;2022-09-21T07:51:14;100274.75;;;16.68;63.20
67842;BME280;54642;59.126;37.876;2022-09-21T07:53:42;100287.03;;;16.66;63.96
67842;BME280;54642;59.126;37.876;2022-09-21T07:56:11;100272.91;;;16.72;62.93
67842;BME280;54642;59.126;37.876;2022-09-21T07:58:38;100283.03;;;16.86;63.03
67842;BME280;54642;59.126;37.876;2022-09-21T08:01:23;100288.03;;;16.95;63.06
67842;BME280;54642;59.126;37.876;2022-09-21T08:03:53;100278.66;;;16.86;62.50
67842;BME280;54642;59.126;37.876;2022-09-21T08:06:19;100298.50;;;16.95;63.11
67842;BME280;54642;59.126;37.876;2022-09-21T08:08:46;100295.50;;;17.09;62.09
67842;BME280;54642;59.126;37.876;2022-09-21T08:11:14;100295.03;;;16.94;62.46
67842;BME280;54642;59.126;37.876;2022-09-21T08:13:40;100281.38;;;16.83;62.45
67842;BME280;54642;59.126;37.876;2022-09-21T08:16:06;100280.97;;;16.64;62.29
67842;BME280;54642;59.126;37.876;2022-09-21T08:18:36;100295.63;;;16.71;62.95
67842;BME280;54642;59.126;37.876;2022-09-21T08:21:02;100306.75;;;17.12;62.42
67842;BME280;54642;59.126;37.876;2022-09-21T08:23:28;100301.31;;;17.19;61.89
67842;BME280;54642;59.126;37.876;2022-09-21T08:26:01;100299.97;;;17.05;62.52
67842;BME280;54642;59.126;37.876;2022-09-21T08:28:28;100304.47;;;17.00;62.26
67842;BME280;54642;59.126;37.876;2022-09-21T08:30:59;100299.19;;;17.02;62.80
67842;BME280;54642;59.126;37.876;2022-09-21T08:33:26;100276.31;;;17.08;62.31
67842;BME280;54642;59.126;37.876;2022-09-21T08:35:53;100299.97;;;17.05;62.52
67842;BME280;54642;59.126;37.876;2022-09-21T08:38:19;100303.66;;;16.98;62.93
67842;BME280;54642;59.126;37.876;2022-09-21T08:40:45;100311.38;;;17.34;61.93
67842;BME280;54642;59.126;37.876;2022-09-21T08:45:47;100302.97;;;17.23;61.22
67842;BME280;54642;59.126;37.876;2022-09-21T08:48:21;100308.19;;;16.91;61.69
67842;BME280;54642;59.126;37.876;2022-09-21T08:50:53;100292.50;;;16.91;61.78
67842;BME280;54642;59.126;37.876;2022-09-21T08:53:21;100317.34;;;17.08;62.55
67842;BME280;54642;59.126;37.876;2022-09-21T08:55:50;100295.75;;;17.00;62.73
67842;BME280;54642;59.126;37.876;2022-09-21T08:58:22;100320.22;;;17.30;61.59
67842;BME280;54642;59.126;37.876;2022-09-21T09:00:56;100294.38;;;17.18;61.77
67842;BME280;54642;59.126;37.876;2022-09-21T09:12:00;100315.88;;;16.63;62.95
67842;BME280;54642;59.126;37.876;2022-09-21T09:14:41;100336.50;;;16.75;63.25
67842;BME280;54642;59.126;37.876;2022-09-21T09:20:10;100317.78;;;16.58;62.74
67842;BME280;54642;59.126;37.876;2022-09-21T09:22:48;100333.38;;;16.61;62.52
67842;BME280;54642;59.126;37.876;2022-09-21T09:25:19;100324.88;;;16.87;62.65
67842;BME280;54642;59.126;37.876;2022-09-21T09:27:49;100318.00;;;16.85;61.96
67842;BME280;54642;59.126;37.876;2022-09-21T09:30:23;100332.53;;;16.95;61.67
67842;BME280;54642;59.126;37.876;2022-09-21T09:33:07;100339.00;;;16.80;61.25
67842;BME280;54642;59.126;37.876;2022-09-21T09:35:43;100345.41;;;16.32;62.38
67842;BME280;54642;59.126;37.876;2022-09-21T09:38:37;100350.06;;;16.21;62.67
67842;BME280;54642;59.126;37.876;2022-09-21T09:41:31;100327.63;;;16.11;62.56
67842;BME280;54642;59.126;37.876;2022-09-21T09:52:25;100352.38;;;16.33;61.67
67842;BME280;54642;59.126;37.876;2022-09-21T09:54:52;100332.78;;;16.14;62.96
67842;BME280;54642;59.126;37.876;2022-09-21T09:57:30;100355.66;;;16.42;61.78
67842;BME280;54642;59.126;37.876;2022-09-21T10:00:03;100340.03;;;16.40;61.35
67842;BME280;54642;59.126;37.876;2022-09-21T10:02:50;100361.56;;;16.14;62.25
67842;BME280;54642;59.126;37.876;2022-09-21T10:05:34;100350.44;;;16.04;62.79
67842;BME280;54642;59.126;37.876;2022-09-21T10:08:03;100353.38;;;15.90;63.29
67842;BME280;54642;59.126;37.876;2022-09-21T10:10:35;100349.72;;;15.97;63.04
67842;BME280;54642;59.126;37.876;2022-09-21T10:15:53;100325.16;;;16.05;62.71
67842;BME280;54642;59.126;37.876;2022-09-21T10:18:28;100349.72;;;16.36;62.47
67842;BME280;54642;59.126;37.876;2022-09-21T10:21:08;100340.63;;;16.14;62.58
67842;BME280;54642;59.126;37.876;2022-09-21T10:23:37;100352.50;;;16.27;62.21
67842;BME280;54642;59.126;37.876;2022-09-21T10:26:11;100340.63;;;16.51;62.29
67842;BME280;54642;59.126;37.876;2022-09-21T10:29:00;100311.59;;;16.26;62.39
67842;BME280;54642;59.126;37.876;2022-09-21T10:31:28;100337.50;;;16.35;61.30
67842;BME280;54642;59.126;37.876;2022-09-21T10:36:29;100334.59;;;16.48;62.00
67842;BME280;54642;59.126;37.876;2022-09-21T10:38:57;100334.94;;;16.34;62.49
67842;BME280;54642;59.126;37.876;2022-09-21T10:41:36;100347.00;;;16.39;61.76
67842;BME280;54642;59.126;37.876;2022-09-21T10:44:02;100342.09;;;16.62;61.04
67842;BME280;54642;59.126;37.876;2022-09-21T10:46:32;100350.44;;;16.42;60.83
67842;BME280;54642;59.126;37.876;2022-09-21T10:49:00;100343.13;;;16.18;61.57
67842;BME280;54642;59.126;37.876;2022-09-21T10:51:28;100354.09;;;16.34;61.40
67842;BME280;54642;59.126;37.876;2022-09-21T10:53:55;100336.13;;;16.20;59.68
67842;BME280;54642;59.126;37.876;2022-09-21T10:56:22;100339.97;;;16.04;60.23
67842;BME280;54642;59.126;37.876;2022-09-21T10:59:11;100353.94;;;16.05;59.84
67842;BME280;54642;59.126;37.876;2022-09-21T11:01:49;100347.25;;;15.91;60.04
67842;BME280;54642;59.126;37.876;2022-09-21T11:09:53;100349.59;;;16.04;60.41
67842;BME280;54642;59.126;37.876;2022-09-21T11:17:37;100359.69;;;16.56;58.77
67842;BME280;54642;59.126;37.876;2022-09-21T11:25:36;100357.16;;;16.52;59.15
67842;BME280;54642;59.126;37.876;2022-09-21T11:31:26;100360.06;;;16.39;58.85
67842;BME280;54642;59.126;37.876;2022-09-21T11:33:40;100360.28;;;16.30;58.65
67842;BME280;54642;59.126;37.876;2022-09-21T11:43:13;100350.31;;;16.81;58.04
67842;BME280;54642;59.126;37.876;2022-09-21T11:50:39;100343.91;;;16.94;57.84
67842;BME280;54642;59.126;37.876;2022-09-21T11:55:46;100359.09;;;16.80;58.04
67842;BME280;54642;59.126;37.876;2022-09-21T11:58:41;100350.78;;;16.98;57.91
67842;BME280;54642;59.126;37.876;2022-09-21T12:01:51;100358.22;;;17.13;57.63
67842;BME280;54642;59.126;37.876;2022-09-21T12:10:09;100372.28;;;16.75;57.90
67842;BME280;54642;59.126;37.876;2022-09-21T12:13:39;100361.03;;;16.35;58.55
67842;BME280;54642;59.126;37.876;2022-09-21T12:18:27;100371.28;;;16.45;59.31
67842;BME280;54642;59.126;37.876;2022-09-21T12:21:13;100363.25;;;16.52;59.36
67842;BME280;54642;59.126;37.876;2022-09-21T12:23:56;100362.25;;;16.58;58.98
67842;BME280;54642;59.126;37.876;2022-09-21T12:26:33;100365.69;;;16.60;58.95
67842;BME280;54642;59.126;37.876;2022-09-21T12:29:23;100363.31;;;16.51;59.29
67842;BME280;54642;59.126;37.876;2022-09-21T12:32:05;100359.63;;;16.58;59.28
67842;BME280;54642;59.126;37.876;2022-09-21T12:34:42;100365.28;;;16.41;59.65
67842;BME280;54642;59.126;37.876;2022-09-21T12:39:43;100354.00;;;16.01;60.58
67842;BME280;54642;59.126;37.876;2022-09-21T12:45:02;100331.22;;;15.66;60.56
67842;BME280;54642;59.126;37.876;2022-09-21T12:53:05;100364.25;;;15.69;61.11
67842;BME280;54642;59.126;37.876;2022-09-21T12:55:41;100368.59;;;15.68;60.94
67842;BME280;54642;59.126;37.876;2022-09-21T13:01:03;100359.88;;;15.69;60.76
67842;BME280;54642;59.126;37.876;2022-09-21T13:03:46;100363.47;;;15.65;60.95
67842;BME280;54642;59.126;37.876;2022-09-21T13:09:04;100371.75;;;15.86;60.75
67842;BME280;54642;59.126;37.876;2022-09-21T13:11:31;100357.84;;;15.85;60.59
67842;BME280;54642;59.126;37.876;2022-09-21T13:14:01;100379.56;;;15.87;60.35
67842;BME280;54642;59.126;37.876;2022-09-21T13:16:32;100353.06;;;15.62;60.79
67842;BME280;54642;59.126;37.876;2022-09-21T13:19:23;100369.28;;;15.81;60.42
67842;BME280;54642;59.126;37.876;2022-09-21T13:24:38;100372.56;;;16.28;60.05
67842;BME280;54642;59.126;37.876;2022-09-21T13:27:05;100339.63;;;16.19;59.48
67842;BME280;54642;59.126;37.876;2022-09-21T13:29:34;100353.59;;;16.18;59.61
67842;BME280;54642;59.126;37.876;2022-09-21T13:32:06;100337.22;;;16.12;59.98
67842;BME280;54642;59.126;37.876;2022-09-21T13:34:45;100372.34;;;16.36;60.28
67842;BME280;54642;59.126;37.876;2022-09-21T13:37:13;100376.41;;;16.12;59.76
67842;BME280;54642;59.126;37.876;2022-09-21T13:44:53;100359.03;;;15.69;60.58
67842;BME280;54642;59.126;37.876;2022-09-21T13:47:28;100331.38;;;15.58;60.81
67842;BME280;54642;59.126;37.876;2022-09-21T13:49:55;100354.16;;;15.95;60.01
67842;BME280;54642;59.126;37.876;2022-09-21T13:52:37;100362.03;;;15.92;60.49
67842;BME280;54642;59.126;37.876;2022-09-21T13:55:23;100366.06;;;16.07;59.83
67842;BME280;54642;59.126;37.876;2022-09-21T13:57:54;100339.56;;;15.85;60.32
67842;BME280;54642;59.126;37.876;2022-09-21T14:08:05;100366.53;;;16.25;59.51
67842;BME280;54642;59.126;37.876;2022-09-21T14:10:34;100366.50;;;16.26;59.44
67842;BME280;54642;59.126;37.876;2022-09-21T14:13:06;100363.75;;;16.31;59.51
67842;BME280;54642;59.126;37.876;2022-09-21T14:15:47;100356.63;;;16.37;59.47
67842;BME280;54642;59.126;37.876;2022-09-21T14:23:36;100369.03;;;16.29;59.25
67842;BME280;54642;59.126;37.876;2022-09-21T14:26:35;100344.47;;;15.99;59.98
67842;BME280;54642;59.126;37.876;2022-09-21T14:31:46;100379.66;;;16.22;59.82
67842;BME280;54642;59.126;37.876;2022-09-21T14:34:19;100385.03;;;16.17;60.68
67842;BME280;54642;59.126;37.876;2022-09-21T14:36:49;100374.25;;;16.29;59.86
67842;BME280;54642;59.126;37.876;2022-09-21T14:39:30;100356.63;;;16.00;59.88
67842;BME280;54642;59.126;37.876;2022-09-21T14:42:02;100378.94;;;16.15;59.91
67842;BME280;54642;59.126;37.876;2022-09-21T14:44:33;100381.56;;;16.15;60.30
67842;BME280;54642;59.126;37.876;2022-09-21T15:01:35;100366.44;;;15.90;60.75
67842;BME280;54642;59.126;37.876;2022-09-21T15:10:05;100395.72;;;15.62;62.02
67842;BME280;54642;59.126;37.876;2022-09-21T15:13:09;100377.84;;;15.42;61.90
67842;BME280;54642;59.126;37.876;2022-09-21T15:18:21;100398.59;;;15.49;61.72
67842;BME280;54642;59.126;37.876;2022-09-21T15:21:03;100383.22;;;15.35;62.00
67842;BME280;54642;59.126;37.876;2022-09-21T15:23:36;100395.78;;;15.59;61.75
67842;BME280;54642;59.126;37.876;2022-09-21T15:26:14;100393.44;;;15.47;62.32
67842;BME280;54642;59.126;37.876;2022-09-21T15:28:45;100383.81;;;15.49;62.11
67842;BME280;54642;59.126;37.876;2022-09-21T15:31:15;100385.25;;;15.20;62.82
67842;BME280;54642;59.126;37.876;2022-09-21T15:33:43;100385.91;;;15.30;63.06
67842;BME280;54642;59.126;37.876;2022-09-21T15:36:26;100414.03;;;15.61;62.59
67842;BME280;54642;59.126;37.876;2022-09-21T15:38:53;100387.94;;;15.59;62.67
67842;BME280;54642;59.126;37.876;2022-09-21T15:44:30;100392.72;;;15.82;62.75
67842;BME280;54642;59.126;37.876;2022-09-21T15:46:53;100400.09;;;16.04;62.77